createdAt,value
2023-01-15T00:01:05.606Z,100577.09
2023-01-15T00:03:32.918Z,100572.25
2023-01-15T00:06:03.502Z,100575.53
2023-01-15T00:08:32.273Z,100576.28
2023-01-15T00:10:59.177Z,100576.88
2023-01-15T00:13:25.911Z,100575.87
2023-01-15T00:15:52.734Z,100577.31
2023-01-15T00:18:19.653Z,100572.13
2023-01-15T00:20:46.545Z,100578.25
2023-01-15T00:23:33.226Z,100569.97
2023-01-15T00:26:18.859Z,100566.66
2023-01-15T00:28:49.113Z,100569.72
2023-01-15T00:31:15.836Z,100553.59
2023-01-15T00:33:42.644Z,100558.63
2023-01-15T00:36:10.278Z,100549.25
2023-01-15T00:38:37.408Z,100549.22
2023-01-15T00:41:04.564Z,100547.72
2023-01-15T00:43:31.514Z,100549.19
2023-01-15T00:45:58.275Z,100543.38
2023-01-15T00:48:25.256Z,100548.13
2023-01-15T00:50:51.997Z,100548.34
2023-01-15T00:53:18.809Z,100537.44
2023-01-15T00:55:45.734Z,100537.63
2023-01-15T00:58:12.423Z,100539.34
2023-01-15T01:00:39.427Z,100548.13
2023-01-15T01:03:07.134Z,100544.72
2023-01-15T01:05:33.982Z,100546.00
2023-01-15T01:08:00.856Z,100541.00
2023-01-15T01:10:47.552Z,100540.62
2023-01-15T01:13:15.487Z,100530.22
2023-01-15T01:15:42.300Z,100527.50
2023-01-15T01:18:29.328Z,100514.87
2023-01-15T01:21:16.321Z,100511.00
2023-01-15T01:23:55.213Z,100498.88
2023-01-15T01:26:21.974Z,100496.97
2023-01-15T01:28:54.458Z,100492.94
2023-01-15T01:31:22.273Z,100484.00
2023-01-15T01:33:53.335Z,100488.16
2023-01-15T01:36:21.295Z,100481.09
2023-01-15T01:38:51.794Z,100482.03
2023-01-15T01:41:19.331Z,100488.31
2023-01-15T01:44:03.237Z,100483.75
2023-01-15T01:46:31.423Z,100479.50
2023-01-15T01:49:00.753Z,100471.63
2023-01-15T01:51:29.265Z,100470.31
2023-01-15T01:53:57.226Z,100463.47
2023-01-15T01:56:24.694Z,100453.00
2023-01-15T01:58:53.491Z,100445.19
2023-01-15T02:01:21.988Z,100451.47
2023-01-15T02:03:48.995Z,100449.84
2023-01-15T02:06:16.264Z,100452.38
2023-01-15T02:08:43.002Z,100442.84
2023-01-15T02:11:13.781Z,100450.13
2023-01-15T02:13:41.793Z,100446.28
2023-01-15T02:16:31.054Z,100446.81
2023-01-15T02:19:17.063Z,100434.84
2023-01-15T02:21:43.816Z,100431.06
2023-01-15T02:24:17.950Z,100441.00
2023-01-15T02:26:44.659Z,100432.34
2023-01-15T02:29:15.666Z,100429.31
2023-01-15T02:31:43.702Z,100425.03
2023-01-15T02:34:21.307Z,100422.78
2023-01-15T02:36:50.691Z,100420.34
2023-01-15T02:39:18.436Z,100411.50
2023-01-15T02:41:47.978Z,100413.97
2023-01-15T02:44:17.296Z,100397.66
2023-01-15T02:46:44.372Z,100408.41
2023-01-15T02:49:13.921Z,100399.56
2023-01-15T02:51:45.001Z,100399.13
2023-01-15T02:54:13.671Z,100397.34
2023-01-15T02:56:42.325Z,100395.31
2023-01-15T02:59:11.763Z,100380.88
2023-01-15T03:01:45.714Z,100393.75
2023-01-15T03:04:18.745Z,100390.13
2023-01-15T03:07:01.202Z,100392.59
2023-01-15T03:09:28.862Z,100380.75
2023-01-15T03:12:03.372Z,100369.56
2023-01-15T03:14:42.391Z,100367.28
2023-01-15T03:17:35.155Z,100360.72
2023-01-15T03:20:22.051Z,100356.53
2023-01-15T03:22:51.952Z,100354.66
2023-01-15T03:25:21.884Z,100354.25
2023-01-15T03:27:48.619Z,100347.66
2023-01-15T03:30:17.744Z,100346.88
2023-01-15T03:32:44.612Z,100344.56
2023-01-15T03:35:31.183Z,100339.63
2023-01-15T03:37:57.880Z,100335.44
2023-01-15T03:40:25.352Z,100341.41
2023-01-15T03:43:17.412Z,100335.28
2023-01-15T03:45:46.612Z,100334.53
2023-01-15T03:48:13.282Z,100327.47
2023-01-15T03:50:49.974Z,100307.25
2023-01-15T03:53:16.642Z,100314.22
2023-01-15T03:55:46.275Z,100310.47
2023-01-15T03:58:21.696Z,100307.09
2023-01-15T04:00:48.475Z,100302.88
2023-01-15T04:03:16.374Z,100307.28
2023-01-15T04:05:44.191Z,100300.06
2023-01-15T04:08:12.954Z,100292.34
2023-01-15T04:10:50.575Z,100284.75
2023-01-15T04:13:17.202Z,100293.97
2023-01-15T04:15:44.171Z,100289.19
2023-01-15T04:18:11.895Z,100290.12
2023-01-15T04:20:44.332Z,100284.78
2023-01-15T04:23:12.015Z,100281.94
2023-01-15T04:25:39.642Z,100285.13
2023-01-15T04:28:06.757Z,100289.62
2023-01-15T04:30:34.052Z,100283.63
2023-01-15T04:33:00.863Z,100290.63
2023-01-15T04:35:27.581Z,100289.25
2023-01-15T04:37:57.721Z,100285.69
2023-01-15T04:40:43.383Z,100282.16
2023-01-15T04:43:32.272Z,100290.34
2023-01-15T04:45:59.371Z,100279.59
2023-01-15T04:48:26.775Z,100283.47
2023-01-15T04:50:54.094Z,100278.81
2023-01-15T04:53:21.023Z,100280.34
2023-01-15T04:55:47.923Z,100271.50
2023-01-15T04:58:15.997Z,100269.44
2023-01-15T05:00:43.277Z,100262.69
2023-01-15T05:03:10.147Z,100266.28
2023-01-15T05:05:38.991Z,100254.75
2023-01-15T05:08:05.823Z,100250.72
2023-01-15T05:10:50.613Z,100251.59
2023-01-15T05:13:17.434Z,100252.25
2023-01-15T05:15:47.142Z,100244.50
2023-01-15T05:18:15.295Z,100240.13
2023-01-15T05:20:42.415Z,100237.47
2023-01-15T05:23:09.084Z,100227.94
2023-01-15T05:25:39.330Z,100222.28
2023-01-15T05:28:06.233Z,100222.47
2023-01-15T05:30:34.034Z,100213.00
2023-01-15T05:33:00.695Z,100216.69
2023-01-15T05:35:27.527Z,100212.44
2023-01-15T05:37:54.261Z,100215.91
2023-01-15T05:40:21.074Z,100211.41
2023-01-15T05:42:47.784Z,100209.03
2023-01-15T05:45:14.463Z,100204.66
2023-01-15T05:47:41.149Z,100209.03
2023-01-15T05:50:08.637Z,100214.06
2023-01-15T05:52:35.356Z,100212.50
2023-01-15T05:55:02.037Z,100212.09
2023-01-15T05:57:28.697Z,100205.16
2023-01-15T05:59:56.732Z,100202.66
2023-01-15T06:02:23.578Z,100207.13
2023-01-15T06:04:50.852Z,100202.78
2023-01-15T06:07:20.527Z,100204.53
2023-01-15T06:09:52.624Z,100214.00
2023-01-15T06:12:19.326Z,100205.69
2023-01-15T06:14:46.523Z,100204.66
2023-01-15T06:17:15.214Z,100204.97
2023-01-15T06:19:41.905Z,100196.37
2023-01-15T06:22:10.884Z,100203.97
2023-01-15T06:24:38.081Z,100195.53
2023-01-15T06:27:05.078Z,100194.78
2023-01-15T06:29:32.405Z,100187.88
2023-01-15T06:31:59.825Z,100186.16
2023-01-15T06:34:27.169Z,100183.47
2023-01-15T06:36:54.084Z,100187.00
2023-01-15T06:39:20.756Z,100198.19
2023-01-15T06:42:08.536Z,100188.69
2023-01-15T06:44:53.935Z,100189.72
2023-01-15T06:47:21.607Z,100189.81
2023-01-15T06:49:49.472Z,100175.03
2023-01-15T06:52:16.255Z,100178.38
2023-01-15T06:54:43.706Z,100179.31
2023-01-15T06:57:10.445Z,100173.47
2023-01-15T06:59:38.118Z,100175.34
2023-01-15T07:02:04.895Z,100167.38
2023-01-15T07:04:32.283Z,100175.31
2023-01-15T07:06:58.985Z,100161.50
2023-01-15T07:09:25.735Z,100172.87
2023-01-15T07:11:52.434Z,100163.41
2023-01-15T07:14:23.726Z,100155.63
2023-01-15T07:16:50.860Z,100148.63
2023-01-15T07:19:17.746Z,100149.47
2023-01-15T07:21:44.607Z,100146.06
2023-01-15T07:24:11.878Z,100151.22
2023-01-15T07:26:38.615Z,100153.03
2023-01-15T07:29:05.984Z,100138.97
2023-01-15T07:31:35.434Z,100136.31
2023-01-15T07:34:02.349Z,100127.69
2023-01-15T07:36:29.223Z,100131.19
2023-01-15T07:38:55.977Z,100129.44
2023-01-15T07:41:41.550Z,100134.66
2023-01-15T07:44:29.106Z,100138.16
2023-01-15T07:47:14.699Z,100120.72
2023-01-15T07:49:45.855Z,100125.94
2023-01-15T07:52:16.004Z,100125.94
2023-01-15T07:54:43.803Z,100115.50
2023-01-15T07:57:23.036Z,100127.69
2023-01-15T07:59:50.390Z,100136.44
2023-01-15T08:02:18.237Z,100125.94
2023-01-15T08:04:45.954Z,100126.78
2023-01-15T08:07:13.496Z,100124.22
2023-01-15T08:09:40.394Z,100117.25
2023-01-15T08:12:26.236Z,100111.13
2023-01-15T08:15:11.404Z,100114.63
2023-01-15T08:17:39.328Z,100112.88
2023-01-15T08:20:07.406Z,100103.28
2023-01-15T08:22:34.365Z,100099.78
2023-01-15T08:25:01.533Z,100096.28
2023-01-15T08:27:29.199Z,100091.91
2023-01-15T08:29:56.953Z,100095.41
2023-01-15T08:32:24.912Z,100091.03
2023-01-15T08:34:51.739Z,100078.69
2023-01-15T08:37:18.912Z,100084.00
2023-01-15T08:39:46.498Z,100072.56
2023-01-15T08:42:13.675Z,100086.62
2023-01-15T08:44:40.416Z,100075.09
2023-01-15T08:47:07.227Z,100085.47
2023-01-15T08:49:34.012Z,100074.22
2023-01-15T08:52:03.504Z,100078.28
2023-01-15T08:54:36.367Z,100071.41
2023-01-15T08:57:03.111Z,100068.91
2023-01-15T08:59:29.966Z,100073.28
2023-01-15T09:01:56.851Z,100059.34
2023-01-15T09:04:23.756Z,100050.53
2023-01-15T09:06:50.599Z,100051.34
2023-01-15T09:09:19.032Z,100059.91
2023-01-15T09:11:46.163Z,100050.25
2023-01-15T09:14:58.885Z,100056.03
2023-01-15T09:17:09.188Z,100055.72
2023-01-15T09:19:36.007Z,100056.16
2023-01-15T09:22:02.846Z,100060.31
2023-01-15T09:24:29.769Z,100053.41
2023-01-15T09:27:16.416Z,100049.66
2023-01-15T09:29:43.098Z,100045.50
2023-01-15T09:32:10.754Z,100040.72
2023-01-15T09:34:37.600Z,100042.69
2023-01-15T09:37:04.369Z,100038.00
2023-01-15T09:39:31.476Z,100032.53
2023-01-15T09:42:05.623Z,100031.47
2023-01-15T09:45:01.944Z,100030.44
2023-01-15T09:47:35.947Z,100031.75
2023-01-15T09:50:21.484Z,100032.50
2023-01-15T09:52:50.992Z,100025.66
2023-01-15T09:55:20.476Z,100016.00
2023-01-15T09:57:50.155Z,100007.03
2023-01-15T10:00:21.230Z,100004.97
2023-01-15T10:02:54.651Z,99994.37
2023-01-15T10:05:21.491Z,99998.91
2023-01-15T10:07:54.250Z,99992.16
2023-01-15T10:10:23.429Z,99989.16
2023-01-15T10:12:53.699Z,99992.47
2023-01-15T10:15:25.555Z,99978.53
2023-01-15T10:17:59.426Z,99978.75
2023-01-15T10:20:39.510Z,99973.78
2023-01-15T10:23:13.867Z,99966.81
2023-01-15T10:25:48.551Z,99961.56
2023-01-15T10:28:27.200Z,99949.50
2023-01-15T10:30:55.159Z,99936.19
2023-01-15T10:33:45.229Z,99936.03
2023-01-15T10:36:16.159Z,99938.81
2023-01-15T10:38:54.283Z,99934.38
2023-01-15T10:41:50.285Z,99917.31
2023-01-15T10:44:21.226Z,99910.75
2023-01-15T10:46:54.480Z,99911.09
2023-01-15T10:49:21.657Z,99909.25
2023-01-15T10:51:56.936Z,99908.63
2023-01-15T10:54:32.401Z,99892.75
2023-01-15T10:57:12.532Z,99882.53
2023-01-15T10:59:51.003Z,99876.56
2023-01-15T11:02:23.976Z,99875.25
2023-01-15T11:04:50.974Z,99870.84
2023-01-15T11:07:18.388Z,99874.47
2023-01-15T11:09:45.628Z,99861.78
2023-01-15T11:12:19.666Z,99859.50
2023-01-15T11:15:05.190Z,99843.72
2023-01-15T11:18:04.233Z,99836.34
2023-01-15T11:20:34.857Z,99830.28
2023-01-15T11:23:18.870Z,99839.28
2023-01-15T11:25:50.483Z,99829.12
2023-01-15T11:28:18.547Z,99821.31
2023-01-15T11:30:53.822Z,99824.00
2023-01-15T11:33:24.695Z,99816.34
2023-01-15T11:35:58.292Z,99811.09
2023-01-15T11:38:26.332Z,99808.56
2023-01-15T11:40:55.075Z,99805.03
2023-01-15T11:43:41.403Z,99807.75
2023-01-15T11:46:46.800Z,99789.56
2023-01-15T11:49:36.264Z,99803.22
2023-01-15T11:52:05.403Z,99798.09
2023-01-15T11:54:36.441Z,99786.03
2023-01-15T11:57:03.904Z,99783.09
2023-01-15T11:59:30.763Z,99783.59
2023-01-15T12:02:00.361Z,99778.78
2023-01-15T12:04:33.301Z,99776.91
2023-01-15T12:07:01.263Z,99774.88
2023-01-15T12:09:28.144Z,99768.75
2023-01-15T12:12:00.835Z,99765.31
2023-01-15T12:14:30.696Z,99766.78
2023-01-15T12:17:00.372Z,99758.28
2023-01-15T12:19:37.688Z,99755.66
2023-01-15T12:22:09.515Z,99750.00
2023-01-15T12:24:55.183Z,99749.44
2023-01-15T12:27:22.064Z,99741.00
2023-01-15T12:29:53.554Z,99738.41
2023-01-15T12:32:23.603Z,99737.94
2023-01-15T12:34:53.432Z,99735.63
2023-01-15T12:37:22.681Z,99733.25
2023-01-15T12:40:07.912Z,99728.41
2023-01-15T12:42:54.959Z,99735.44
2023-01-15T12:45:33.948Z,99730.59
2023-01-15T12:48:10.297Z,99717.13
2023-01-15T12:50:51.733Z,99712.94
2023-01-15T12:53:21.736Z,99721.22
2023-01-15T12:55:58.140Z,99717.97
2023-01-15T12:58:39.377Z,99714.62
2023-01-15T13:01:24.585Z,99716.59
2023-01-15T13:04:09.929Z,99721.31
2023-01-15T13:06:38.948Z,99708.00
2023-01-15T13:09:13.515Z,99713.53
2023-01-15T13:11:40.370Z,99713.25
2023-01-15T13:14:25.258Z,99711.50
2023-01-15T13:17:21.292Z,99706.38
2023-01-15T13:20:23.720Z,99704.13
2023-01-15T13:23:09.034Z,99697.50
2023-01-15T13:25:38.914Z,99687.59
2023-01-15T13:28:13.858Z,99682.28
2023-01-15T13:30:59.530Z,99684.03
2023-01-15T13:33:36.799Z,99683.88
2023-01-15T13:36:07.186Z,99683.72
2023-01-15T13:38:37.742Z,99679.94
2023-01-15T13:41:09.993Z,99683.31
2023-01-15T13:43:37.027Z,99681.41
2023-01-15T13:46:05.755Z,99682.94
2023-01-15T13:48:46.549Z,99677.22
2023-01-15T13:51:22.434Z,99677.53
2023-01-15T13:53:50.578Z,99678.09
2023-01-15T13:56:31.477Z,99671.63
2023-01-15T13:58:58.357Z,99665.56
2023-01-15T14:01:30.627Z,99659.13
2023-01-15T14:04:00.531Z,99664.44
2023-01-15T14:06:36.757Z,99666.84
2023-01-15T14:09:05.647Z,99676.78
2023-01-15T14:11:37.483Z,99674.13
2023-01-15T14:14:27.858Z,99668.00
2023-01-15T14:17:10.419Z,99673.44
2023-01-15T14:19:43.299Z,99670.00
2023-01-15T14:22:28.698Z,99666.37
2023-01-15T14:25:13.913Z,99666.31
2023-01-15T14:27:40.629Z,99668.47
2023-01-15T14:30:07.400Z,99662.66
2023-01-15T14:32:37.119Z,99673.59
2023-01-15T14:35:06.403Z,99671.97
2023-01-15T14:37:39.771Z,99666.03
2023-01-15T14:40:07.560Z,99662.31
2023-01-15T14:42:59.771Z,99664.75
2023-01-15T14:45:43.450Z,99663.91
2023-01-15T14:48:36.918Z,99663.72
2023-01-15T14:51:14.739Z,99664.91
2023-01-15T14:53:45.151Z,99669.69
2023-01-15T14:56:23.526Z,99678.88
2023-01-15T14:58:56.312Z,99676.78
2023-01-15T15:01:42.026Z,99669.41
2023-01-15T15:04:11.547Z,99668.75
2023-01-15T15:06:47.710Z,99675.81
2023-01-15T15:09:15.075Z,99679.66
2023-01-15T15:12:07.826Z,99677.00
2023-01-15T15:14:37.264Z,99673.00
2023-01-15T15:17:06.288Z,99678.19
2023-01-15T15:19:39.086Z,99678.34
2023-01-15T15:22:07.035Z,99674.19
2023-01-15T15:24:35.532Z,99676.03
2023-01-15T15:27:20.785Z,99683.16
2023-01-15T15:29:47.770Z,99694.63
2023-01-15T15:32:22.834Z,99717.09
2023-01-15T15:34:53.674Z,99702.94
2023-01-15T15:37:21.831Z,99709.91
2023-01-15T15:40:30.576Z,99702.31
2023-01-15T15:43:33.615Z,99706.66
2023-01-15T15:46:39.263Z,99712.19
2023-01-15T15:49:26.264Z,99701.97
2023-01-15T15:51:54.385Z,99702.91
2023-01-15T15:54:22.288Z,99701.00
2023-01-15T15:56:59.555Z,99699.84
2023-01-15T15:59:30.930Z,99698.47
2023-01-15T16:01:59.271Z,99698.00
2023-01-15T16:04:27.089Z,99705.94
2023-01-15T16:06:53.822Z,99699.81
2023-01-15T16:09:21.922Z,99705.53
2023-01-15T16:11:49.970Z,99707.47
2023-01-15T16:14:17.402Z,99706.41
2023-01-15T16:16:44.645Z,99701.16
2023-01-15T16:19:15.805Z,99706.25
2023-01-15T16:21:42.761Z,99700.16
2023-01-15T16:24:21.571Z,99701.50
2023-01-15T16:26:52.832Z,99698.88
2023-01-15T16:29:21.760Z,99702.00
2023-01-15T16:31:48.875Z,99704.59
2023-01-15T16:34:23.762Z,99709.72
2023-01-15T16:36:50.790Z,99716.66
2023-01-15T16:39:23.636Z,99718.91
2023-01-15T16:41:51.390Z,99708.59
2023-01-15T16:44:35.380Z,99717.56
2023-01-15T16:47:02.569Z,99715.03
2023-01-15T16:49:33.319Z,99714.09
2023-01-15T16:52:01.188Z,99722.78
2023-01-15T16:54:30.795Z,99713.16
2023-01-15T16:56:57.656Z,99715.16
2023-01-15T16:59:27.530Z,99718.37
2023-01-15T17:01:57.180Z,99723.84
2023-01-15T17:04:32.423Z,99726.66
2023-01-15T17:07:03.685Z,99727.16
2023-01-15T17:09:32.234Z,99726.53
2023-01-15T17:11:59.991Z,99730.91
2023-01-15T17:14:27.828Z,99738.84
2023-01-15T17:17:15.488Z,99739.47
2023-01-15T17:19:42.250Z,99743.03
2023-01-15T17:22:15.153Z,99739.56
2023-01-15T17:24:51.978Z,99746.91
2023-01-15T17:27:18.984Z,99750.91
2023-01-15T17:29:45.750Z,99750.37
2023-01-15T17:32:15.066Z,99761.81
2023-01-15T17:34:41.919Z,99755.03
2023-01-15T17:37:08.711Z,99760.88
2023-01-15T17:39:35.485Z,99744.75
2023-01-15T17:42:02.229Z,99746.75
2023-01-15T17:44:28.981Z,99754.50
2023-01-15T17:46:55.770Z,99753.44
2023-01-15T17:49:22.466Z,99761.34
2023-01-15T17:51:49.496Z,99774.25
2023-01-15T17:54:36.109Z,99760.62
2023-01-15T17:57:21.361Z,99764.69
2023-01-15T18:00:06.487Z,99772.97
2023-01-15T18:02:51.646Z,99780.69
2023-01-15T18:05:27.227Z,99787.06
2023-01-15T18:07:56.878Z,99798.69
2023-01-15T18:10:24.071Z,99808.56
2023-01-15T18:12:51.904Z,99816.09
2023-01-15T18:15:19.820Z,99804.25
2023-01-15T18:17:46.848Z,99817.25
2023-01-15T18:20:14.135Z,99813.84
2023-01-15T18:22:41.115Z,99814.25
2023-01-15T18:25:10.819Z,99821.19
2023-01-15T18:27:42.934Z,99846.41
2023-01-15T18:30:14.437Z,99860.09
2023-01-15T18:33:02.860Z,99897.41
2023-01-15T18:35:29.744Z,99912.47
2023-01-15T18:37:57.112Z,99890.41
2023-01-15T18:40:35.971Z,99897.34
2023-01-15T18:43:22.513Z,99888.13
2023-01-15T18:46:07.790Z,99879.06
2023-01-15T18:48:34.544Z,99875.56
2023-01-15T18:51:10.963Z,99859.41
2023-01-15T18:53:37.683Z,99853.03
2023-01-15T18:56:05.470Z,99856.22
2023-01-15T18:58:32.423Z,99846.59
2023-01-15T19:01:06.092Z,99847.66
2023-01-15T19:03:33.546Z,99834.34
2023-01-15T19:06:07.262Z,99843.63
2023-01-15T19:08:33.995Z,99845.00
2023-01-15T19:11:00.765Z,99843.94
2023-01-15T19:13:27.587Z,99848.41
2023-01-15T19:16:12.952Z,99843.03
2023-01-15T19:18:42.348Z,99851.13
2023-01-15T19:21:09.155Z,99855.66
2023-01-15T19:23:35.846Z,99860.16
2023-01-15T19:26:03.199Z,99872.19
2023-01-15T19:28:30.159Z,99858.00
2023-01-15T19:31:15.477Z,99864.19
2023-01-15T19:33:42.208Z,99860.66
2023-01-15T19:36:09.198Z,99855.19
2023-01-15T19:38:38.779Z,99849.09
2023-01-15T19:41:30.664Z,99858.53
2023-01-15T19:44:16.021Z,99863.84
2023-01-15T19:47:01.692Z,99863.94
2023-01-15T19:49:49.817Z,99872.28
2023-01-15T19:52:34.729Z,99863.44
2023-01-15T19:55:06.082Z,99873.75
2023-01-15T19:57:32.788Z,99871.06
2023-01-15T19:59:59.557Z,99865.16
2023-01-15T20:02:26.733Z,99872.37
2023-01-15T20:04:53.735Z,99874.16
2023-01-15T20:07:20.578Z,99868.59
2023-01-15T20:09:47.247Z,99866.78
2023-01-15T20:12:32.539Z,99868.69
2023-01-15T20:14:59.496Z,99874.97
2023-01-15T20:17:27.993Z,99879.34
2023-01-15T20:19:54.758Z,99871.44
2023-01-15T20:22:21.574Z,99860.91
2023-01-15T20:24:48.528Z,99864.50
2023-01-15T20:27:15.242Z,99862.63
2023-01-15T20:29:42.865Z,99855.69
2023-01-15T20:32:10.423Z,99857.66
2023-01-15T20:34:39.449Z,99867.38
2023-01-15T20:37:07.032Z,99852.22
2023-01-15T20:39:34.662Z,99841.13
2023-01-15T20:42:20.068Z,99830.91
2023-01-15T20:44:55.554Z,99832.91
2023-01-15T20:47:45.344Z,99842.97
2023-01-15T20:50:15.673Z,99844.31
2023-01-15T20:52:47.017Z,99847.91
2023-01-15T20:55:13.909Z,99854.53
2023-01-15T20:57:41.942Z,99856.16
2023-01-15T21:00:10.611Z,99864.94
2023-01-15T21:02:37.835Z,99864.03
2023-01-15T21:05:05.653Z,99848.69
2023-01-15T21:07:33.200Z,99863.63
2023-01-15T21:09:59.864Z,99863.44
2023-01-15T21:12:26.675Z,99868.47
2023-01-15T21:14:53.372Z,99870.94
2023-01-15T21:17:20.115Z,99861.38
2023-01-15T21:19:46.775Z,99866.53
2023-01-15T21:22:14.874Z,99868.09
2023-01-15T21:24:41.693Z,99870.66
2023-01-15T21:27:08.393Z,99870.56
2023-01-15T21:29:35.083Z,99869.91
2023-01-15T21:32:01.773Z,99870.56
2023-01-15T21:34:31.363Z,99860.72
2023-01-15T21:36:58.047Z,99861.22
2023-01-15T21:39:24.955Z,99860.12
2023-01-15T21:42:11.347Z,99862.75
2023-01-15T21:44:43.510Z,99862.00
2023-01-15T21:47:14.569Z,99858.38
2023-01-15T21:49:42.354Z,99861.88
2023-01-15T21:52:10.758Z,99865.25
2023-01-15T21:54:37.578Z,99868.00
2023-01-15T21:57:04.325Z,99869.75
2023-01-15T21:59:31.016Z,99862.69
2023-01-15T22:01:58.731Z,99865.56
2023-01-15T22:04:27.009Z,99875.38
2023-01-15T22:06:54.480Z,99867.41
2023-01-15T22:09:21.451Z,99870.91
2023-01-15T22:11:49.307Z,99876.41
2023-01-15T22:14:22.810Z,99884.09
2023-01-15T22:16:51.537Z,99888.31
2023-01-15T22:19:20.853Z,99889.34
2023-01-15T22:21:55.826Z,99882.38
2023-01-15T22:24:25.197Z,99867.50
2023-01-15T22:26:54.790Z,99858.94
2023-01-15T22:29:26.204Z,99869.47
2023-01-15T22:31:53.283Z,99866.75
2023-01-15T22:34:23.737Z,99868.41
2023-01-15T22:36:50.765Z,99858.72
2023-01-15T22:39:17.890Z,99864.66
2023-01-15T22:42:04.203Z,99848.37
2023-01-15T22:44:31.255Z,99849.22
2023-01-15T22:46:58.007Z,99840.59
2023-01-15T22:49:24.763Z,99836.25
2023-01-15T22:51:52.266Z,99837.91
2023-01-15T22:54:19.902Z,99835.38
2023-01-15T22:56:47.006Z,99829.19
2023-01-15T22:59:19.506Z,99820.50
2023-01-15T23:02:06.607Z,99818.91
2023-01-15T23:04:53.115Z,99813.72
2023-01-15T23:07:19.969Z,99803.59
2023-01-15T23:09:47.114Z,99793.00
2023-01-15T23:12:14.358Z,99788.91
2023-01-15T23:14:41.146Z,99786.63
2023-01-15T23:17:08.956Z,99788.09
2023-01-15T23:19:40.327Z,99789.22
2023-01-15T23:22:07.463Z,99784.47
2023-01-15T23:24:34.216Z,99778.19
2023-01-15T23:27:00.924Z,99788.56
2023-01-15T23:29:27.645Z,99785.91
2023-01-15T23:31:54.454Z,99784.91
2023-01-15T23:34:21.175Z,99780.47
2023-01-15T23:36:47.967Z,99770.84
2023-01-15T23:39:14.617Z,99759.91
2023-01-15T23:42:00.023Z,99761.34
2023-01-15T23:44:45.117Z,99765.41
2023-01-15T23:47:11.972Z,99763.78
2023-01-15T23:49:39.359Z,99764.16
2023-01-15T23:52:06.239Z,99782.31
2023-01-15T23:54:34.160Z,99778.66
2023-01-15T23:57:01.817Z,99782.97
2023-01-15T23:59:37.865Z,99782.97
